sensor_id;sensor_type;location;lat;lon;timestamp;pressure;altitude;pressure_sealevel;temperature;humidity
22025;BME280;11176;51.448;6.650;2022-12-18T00:01:20;45905.88;;;-141.29;88.20
22025;BME280;11176;51.448;6.650;2022-12-18T00:03:48;45909.88;;;-141.29;88.29
22025;BME280;11176;51.448;6.650;2022-12-18T00:06:18;45919.84;;;-141.29;88.20
22025;BME280;11176;51.448;6.650;2022-12-18T00:08:45;45909.88;;;-141.29;88.29
22025;BME280;11176;51.448;6.650;2022-12-18T00:11:16;45909.88;;;-141.29;88.69
22025;BME280;11176;51.448;6.650;2022-12-18T00:13:43;45927.84;;;-141.29;88.89
22025;BME280;11176;51.448;6.650;2022-12-18T00:16:12;45921.84;;;-141.29;89.17
22025;BME280;11176;51.448;6.650;2022-12-18T00:18:40;45937.84;;;-141.29;89.54
22025;BME280;11176;51.448;6.650;2022-12-18T00:21:09;45919.84;;;-141.29;89.24
22025;BME280;11176;51.448;6.650;2022-12-18T00:23:37;45891.88;;;-141.29;88.94
22025;BME280;11176;51.448;6.650;2022-12-18T00:26:08;45921.84;;;-141.29;89.39
22025;BME280;11176;51.448;6.650;2022-12-18T00:28:36;45949.84;;;-141.29;89.34
22025;BME280;11176;51.448;6.650;2022-12-18T00:31:05;45909.88;;;-141.29;89.29
22025;BME280;11176;51.448;6.650;2022-12-18T00:33:32;45933.84;;;-141.29;88.98
22025;BME280;11176;51.448;6.650;2022-12-18T00:36:08;45933.84;;;-141.29;89.38
22025;BME280;11176;51.448;6.650;2022-12-18T00:38:36;45929.84;;;-141.29;89.16
22025;BME280;11176;51.448;6.650;2022-12-18T00:41:03;45913.84;;;-141.29;89.05
22025;BME280;11176;51.448;6.650;2022-12-18T00:43:30;45913.84;;;-141.29;88.72
22025;BME280;11176;51.448;6.650;2022-12-18T00:45:56;45911.84;;;-141.29;88.53
22025;BME280;11176;51.448;6.650;2022-12-18T00:48:22;45915.84;;;-141.29;88.66
22025;BME280;11176;51.448;6.650;2022-12-18T00:50:49;45937.84;;;-141.29;88.67
22025;BME280;11176;51.448;6.650;2022-12-18T00:53:17;45919.84;;;-141.29;88.28
22025;BME280;11176;51.448;6.650;2022-12-18T00:55:44;45897.88;;;-141.29;88.56
22025;BME280;11176;51.448;6.650;2022-12-18T00:58:13;45897.88;;;-141.29;88.40
22025;BME280;11176;51.448;6.650;2022-12-18T01:00:39;45905.88;;;-141.29;88.60
22025;BME280;11176;51.448;6.650;2022-12-18T01:03:12;45919.84;;;-141.29;88.63
22025;BME280;11176;51.448;6.650;2022-12-18T01:05:40;45909.88;;;-141.29;88.96
22025;BME280;11176;51.448;6.650;2022-12-18T01:08:07;45921.84;;;-141.29;88.98
22025;BME280;11176;51.448;6.650;2022-12-18T01:10:34;45907.88;;;-141.29;88.84
22025;BME280;11176;51.448;6.650;2022-12-18T01:13:00;45913.84;;;-141.29;88.99
22025;BME280;11176;51.448;6.650;2022-12-18T01:15:27;45899.88;;;-141.29;88.91
22025;BME280;11176;51.448;6.650;2022-12-18T01:17:53;45923.84;;;-141.29;89.18
22025;BME280;11176;51.448;6.650;2022-12-18T01:20:20;45921.84;;;-141.29;89.24
22025;BME280;11176;51.448;6.650;2022-12-18T01:22:47;45909.88;;;-141.29;89.21
22025;BME280;11176;51.448;6.650;2022-12-18T01:25:13;45913.84;;;-141.29;89.42
22025;BME280;11176;51.448;6.650;2022-12-18T01:27:40;45949.84;;;-141.29;89.69
22025;BME280;11176;51.448;6.650;2022-12-18T01:30:07;45947.84;;;-141.29;89.58
22025;BME280;11176;51.448;6.650;2022-12-18T01:32:33;45933.84;;;-141.29;89.49
22025;BME280;11176;51.448;6.650;2022-12-18T01:35:01;45935.84;;;-141.29;89.47
22025;BME280;11176;51.448;6.650;2022-12-18T01:37:27;45937.84;;;-141.29;89.41
22025;BME280;11176;51.448;6.650;2022-12-18T01:39:54;45913.84;;;-141.29;89.20
22025;BME280;11176;51.448;6.650;2022-12-18T01:42:21;45929.84;;;-141.29;88.92
22025;BME280;11176;51.448;6.650;2022-12-18T01:47:47;45941.84;;;-141.29;88.82
22025;BME280;11176;51.448;6.650;2022-12-18T01:50:40;45961.81;;;-141.29;89.09
22025;BME280;11176;51.448;6.650;2022-12-18T01:53:15;45957.84;;;-141.29;89.47
22025;BME280;11176;51.448;6.650;2022-12-18T01:55:45;45953.84;;;-141.29;89.80
22025;BME280;11176;51.448;6.650;2022-12-18T01:58:13;45945.84;;;-141.29;90.18
22025;BME280;11176;51.448;6.650;2022-12-18T02:00:40;45937.84;;;-141.29;91.27
22025;BME280;11176;51.448;6.650;2022-12-18T02:03:07;45941.84;;;-141.29;90.92
22025;BME280;11176;51.448;6.650;2022-12-18T02:05:47;45909.88;;;-141.29;90.60
22025;BME280;11176;51.448;6.650;2022-12-18T02:08:30;45913.84;;;-141.29;90.22
22025;BME280;11176;51.448;6.650;2022-12-18T02:11:21;45929.84;;;-141.29;90.13
22025;BME280;11176;51.448;6.650;2022-12-18T02:14:07;45945.84;;;-141.29;89.83
22025;BME280;11176;51.448;6.650;2022-12-18T02:17:04;45899.88;;;-141.29;90.22
22025;BME280;11176;51.448;6.650;2022-12-18T02:23:11;45937.84;;;-141.29;89.61
22025;BME280;11176;51.448;6.650;2022-12-18T02:26:02;45937.84;;;-141.29;89.57
22025;BME280;11176;51.448;6.650;2022-12-18T02:28:36;45929.84;;;-141.29;89.67
22025;BME280;11176;51.448;6.650;2022-12-18T02:31:07;45933.84;;;-141.29;89.48
22025;BME280;11176;51.448;6.650;2022-12-18T02:33:38;45907.88;;;-141.29;89.66
22025;BME280;11176;51.448;6.650;2022-12-18T02:36:08;45925.84;;;-141.29;89.51
22025;BME280;11176;51.448;6.650;2022-12-18T02:38:36;45925.84;;;-141.29;89.18
22025;BME280;11176;51.448;6.650;2022-12-18T02:41:11;45949.84;;;-141.29;89.03
22025;BME280;11176;51.448;6.650;2022-12-18T02:43:40;45939.84;;;-141.29;88.84
22025;BME280;11176;51.448;6.650;2022-12-18T02:46:25;45925.84;;;-141.29;89.05
22025;BME280;11176;51.448;6.650;2022-12-18T02:57:16;45953.84;;;-141.29;89.38
22025;BME280;11176;51.448;6.650;2022-12-18T03:00:03;45923.84;;;-141.29;89.45
22025;BME280;11176;51.448;6.650;2022-12-18T03:02:53;45921.84;;;-141.29;89.18
22025;BME280;11176;51.448;6.650;2022-12-18T03:05:23;45929.84;;;-141.29;88.91
22025;BME280;11176;51.448;6.650;2022-12-18T03:07:59;45943.84;;;-141.29;89.16
22025;BME280;11176;51.448;6.650;2022-12-18T03:10:39;45921.84;;;-141.29;89.72
22025;BME280;11176;51.448;6.650;2022-12-18T03:13:12;45929.84;;;-141.29;89.45
22025;BME280;11176;51.448;6.650;2022-12-18T03:15:47;45949.84;;;-141.29;89.50
22025;BME280;11176;51.448;6.650;2022-12-18T03:18:20;45945.84;;;-141.29;89.74
22025;BME280;11176;51.448;6.650;2022-12-18T03:20:49;45911.84;;;-141.29;89.82
22025;BME280;11176;51.448;6.650;2022-12-18T03:23:23;45925.84;;;-141.29;89.71
22025;BME280;11176;51.448;6.650;2022-12-18T03:26:08;45957.84;;;-141.29;89.80
22025;BME280;11176;51.448;6.650;2022-12-18T03:28:43;45941.84;;;-141.29;90.20
22025;BME280;11176;51.448;6.650;2022-12-18T03:31:12;45953.84;;;-141.29;89.72
22025;BME280;11176;51.448;6.650;2022-12-18T03:33:55;45941.84;;;-141.29;89.62
22025;BME280;11176;51.448;6.650;2022-12-18T03:36:30;45907.88;;;-141.29;89.76
22025;BME280;11176;51.448;6.650;2022-12-18T03:38:58;45921.84;;;-141.29;89.58
22025;BME280;11176;51.448;6.650;2022-12-18T03:41:38;45951.84;;;-141.29;89.77
22025;BME280;11176;51.448;6.650;2022-12-18T03:47:09;45933.84;;;-141.29;89.83
22025;BME280;11176;51.448;6.650;2022-12-18T03:49:46;45933.84;;;-141.29;89.75
22025;BME280;11176;51.448;6.650;2022-12-18T03:52:26;45909.88;;;-141.29;89.90
22025;BME280;11176;51.448;6.650;2022-12-18T03:54:56;45921.84;;;-141.29;90.29
22025;BME280;11176;51.448;6.650;2022-12-18T03:57:28;45925.84;;;-141.29;90.43
22025;BME280;11176;51.448;6.650;2022-12-18T04:00:01;45921.84;;;-141.29;89.98
22025;BME280;11176;51.448;6.650;2022-12-18T04:02:45;45915.84;;;-141.29;90.23
22025;BME280;11176;51.448;6.650;2022-12-18T04:05:21;45915.84;;;-141.29;90.38
22025;BME280;11176;51.448;6.650;2022-12-18T04:07:49;45945.84;;;-141.29;90.07
22025;BME280;11176;51.448;6.650;2022-12-18T04:10:17;45925.84;;;-141.29;90.12
22025;BME280;11176;51.448;6.650;2022-12-18T04:12:44;45929.84;;;-141.29;89.99
22025;BME280;11176;51.448;6.650;2022-12-18T04:15:12;45913.84;;;-141.29;89.71
22025;BME280;11176;51.448;6.650;2022-12-18T04:17:46;45923.84;;;-141.29;89.51
22025;BME280;11176;51.448;6.650;2022-12-18T04:20:16;45905.88;;;-141.29;88.96
22025;BME280;11176;51.448;6.650;2022-12-18T04:22:44;45913.84;;;-141.29;89.03
22025;BME280;11176;51.448;6.650;2022-12-18T04:25:12;45905.88;;;-141.29;89.25
22025;BME280;11176;51.448;6.650;2022-12-18T04:27:48;45889.88;;;-141.29;89.27
22025;BME280;11176;51.448;6.650;2022-12-18T04:30:15;45905.88;;;-141.29;89.22
22025;BME280;11176;51.448;6.650;2022-12-18T04:32:42;45913.84;;;-141.29;88.94
22025;BME280;11176;51.448;6.650;2022-12-18T04:35:14;45929.84;;;-141.29;89.10
22025;BME280;11176;51.448;6.650;2022-12-18T04:37:42;45919.84;;;-141.29;88.65
22025;BME280;11176;51.448;6.650;2022-12-18T04:40:10;45921.84;;;-141.29;87.90
22025;BME280;11176;51.448;6.650;2022-12-18T04:42:41;45893.88;;;-141.29;87.77
22025;BME280;11176;51.448;6.650;2022-12-18T04:45:07;45897.88;;;-141.29;87.61
22025;BME280;11176;51.448;6.650;2022-12-18T04:47:34;45901.88;;;-141.29;87.24
22025;BME280;11176;51.448;6.650;2022-12-18T04:50:01;45923.84;;;-141.29;87.52
22025;BME280;11176;51.448;6.650;2022-12-18T04:52:31;45901.88;;;-141.29;87.36
22025;BME280;11176;51.448;6.650;2022-12-18T04:54:57;45901.88;;;-141.29;87.14
22025;BME280;11176;51.448;6.650;2022-12-18T04:57:23;45929.84;;;-141.29;87.25
22025;BME280;11176;51.448;6.650;2022-12-18T04:59:50;45909.88;;;-141.29;87.49
22025;BME280;11176;51.448;6.650;2022-12-18T05:02:16;45937.84;;;-141.29;87.45
22025;BME280;11176;51.448;6.650;2022-12-18T05:04:43;45905.88;;;-141.29;87.69
22025;BME280;11176;51.448;6.650;2022-12-18T05:07:09;45917.84;;;-141.29;87.59
22025;BME280;11176;51.448;6.650;2022-12-18T05:09:35;45921.84;;;-141.29;87.64
22025;BME280;11176;51.448;6.650;2022-12-18T05:12:02;45919.84;;;-141.29;87.41
22025;BME280;11176;51.448;6.650;2022-12-18T05:14:28;45897.88;;;-141.29;87.73
22025;BME280;11176;51.448;6.650;2022-12-18T05:16:55;45909.88;;;-141.29;88.00
22025;BME280;11176;51.448;6.650;2022-12-18T05:19:26;45897.88;;;-141.29;88.12
22025;BME280;11176;51.448;6.650;2022-12-18T05:21:52;45909.88;;;-141.29;88.19
22025;BME280;11176;51.448;6.650;2022-12-18T05:24:19;45907.88;;;-141.29;88.36
22025;BME280;11176;51.448;6.650;2022-12-18T05:26:46;45905.88;;;-141.29;88.25
22025;BME280;11176;51.448;6.650;2022-12-18T05:29:12;45925.84;;;-141.29;88.36
22025;BME280;11176;51.448;6.650;2022-12-18T05:31:40;45923.84;;;-141.29;88.18
22025;BME280;11176;51.448;6.650;2022-12-18T05:34:08;45917.84;;;-141.29;88.15
22025;BME280;11176;51.448;6.650;2022-12-18T05:36:35;45933.84;;;-141.29;88.31
22025;BME280;11176;51.448;6.650;2022-12-18T05:39:04;45909.88;;;-141.29;88.38
22025;BME280;11176;51.448;6.650;2022-12-18T05:41:31;45911.84;;;-141.29;88.28
22025;BME280;11176;51.448;6.650;2022-12-18T05:43:58;45919.84;;;-141.29;88.41
22025;BME280;11176;51.448;6.650;2022-12-18T05:46:24;45903.88;;;-141.29;88.18
22025;BME280;11176;51.448;6.650;2022-12-18T05:48:51;45903.88;;;-141.29;87.82
22025;BME280;11176;51.448;6.650;2022-12-18T05:51:19;45933.84;;;-141.29;87.98
22025;BME280;11176;51.448;6.650;2022-12-18T05:53:47;45929.84;;;-141.29;87.96
22025;BME280;11176;51.448;6.650;2022-12-18T05:56:17;45921.84;;;-141.29;87.90
22025;BME280;11176;51.448;6.650;2022-12-18T05:58:45;45923.84;;;-141.29;87.59
22025;BME280;11176;51.448;6.650;2022-12-18T06:01:20;45917.84;;;-141.29;87.89
22025;BME280;11176;51.448;6.650;2022-12-18T06:03:47;45953.84;;;-141.29;87.69
22025;BME280;11176;51.448;6.650;2022-12-18T06:06:15;45889.88;;;-141.29;87.87
22025;BME280;11176;51.448;6.650;2022-12-18T06:08:43;45915.84;;;-141.29;87.23
22025;BME280;11176;51.448;6.650;2022-12-18T06:11:12;45931.84;;;-141.29;87.66
22025;BME280;11176;51.448;6.650;2022-12-18T06:13:39;45905.88;;;-141.29;87.59
22025;BME280;11176;51.448;6.650;2022-12-18T06:16:07;45905.88;;;-141.29;87.04
22025;BME280;11176;51.448;6.650;2022-12-18T06:18:37;45921.84;;;-141.29;87.29
22025;BME280;11176;51.448;6.650;2022-12-18T06:21:03;45921.84;;;-141.29;87.14
22025;BME280;11176;51.448;6.650;2022-12-18T06:23:30;45925.84;;;-141.29;87.34
22025;BME280;11176;51.448;6.650;2022-12-18T06:25:56;45937.84;;;-141.29;87.71
22025;BME280;11176;51.448;6.650;2022-12-18T06:28:23;45929.84;;;-141.29;87.49
22025;BME280;11176;51.448;6.650;2022-12-18T06:30:50;45913.84;;;-141.29;87.75
22025;BME280;11176;51.448;6.650;2022-12-18T06:33:16;45913.84;;;-141.29;87.52
22025;BME280;11176;51.448;6.650;2022-12-18T06:35:43;45901.88;;;-141.29;87.50
22025;BME280;11176;51.448;6.650;2022-12-18T06:38:09;45919.84;;;-141.29;87.47
22025;BME280;11176;51.448;6.650;2022-12-18T06:40:37;45937.84;;;-141.29;87.52
22025;BME280;11176;51.448;6.650;2022-12-18T06:43:05;45925.84;;;-141.29;87.52
22025;BME280;11176;51.448;6.650;2022-12-18T06:45:32;45913.84;;;-141.29;88.08
22025;BME280;11176;51.448;6.650;2022-12-18T06:47:58;45921.84;;;-141.29;88.16
22025;BME280;11176;51.448;6.650;2022-12-18T06:50:25;45919.84;;;-141.29;88.17
22025;BME280;11176;51.448;6.650;2022-12-18T06:52:52;45925.84;;;-141.29;88.24
22025;BME280;11176;51.448;6.650;2022-12-18T06:55:18;45933.84;;;-141.29;88.40
22025;BME280;11176;51.448;6.650;2022-12-18T06:57:45;45913.84;;;-141.29;88.32
22025;BME280;11176;51.448;6.650;2022-12-18T07:00:11;45923.84;;;-141.29;88.36
22025;BME280;11176;51.448;6.650;2022-12-18T07:02:38;45915.84;;;-141.29;88.07
22025;BME280;11176;51.448;6.650;2022-12-18T07:05:05;45895.88;;;-141.29;87.73
22025;BME280;11176;51.448;6.650;2022-12-18T07:07:36;45929.84;;;-141.29;87.60
22025;BME280;11176;51.448;6.650;2022-12-18T07:10:03;45937.84;;;-141.29;87.62
22025;BME280;11176;51.448;6.650;2022-12-18T07:12:30;45919.84;;;-141.29;87.57
22025;BME280;11176;51.448;6.650;2022-12-18T07:14:56;45897.88;;;-141.29;87.56
22025;BME280;11176;51.448;6.650;2022-12-18T07:17:23;45919.84;;;-141.29;87.88
22025;BME280;11176;51.448;6.650;2022-12-18T07:19:49;45885.88;;;-141.29;87.63
22025;BME280;11176;51.448;6.650;2022-12-18T07:22:16;45913.84;;;-141.29;87.63
22025;BME280;11176;51.448;6.650;2022-12-18T07:24:43;45895.88;;;-141.29;87.67
22025;BME280;11176;51.448;6.650;2022-12-18T07:27:09;45941.84;;;-141.29;87.78
22025;BME280;11176;51.448;6.650;2022-12-18T07:29:35;45909.88;;;-141.29;87.94
22025;BME280;11176;51.448;6.650;2022-12-18T07:32:03;45881.88;;;-141.29;87.45
22025;BME280;11176;51.448;6.650;2022-12-18T07:34:30;45925.84;;;-141.29;87.47
22025;BME280;11176;51.448;6.650;2022-12-18T07:36:56;45891.88;;;-141.29;87.44
22025;BME280;11176;51.448;6.650;2022-12-18T07:39:22;45899.88;;;-141.29;87.56
22025;BME280;11176;51.448;6.650;2022-12-18T07:41:49;45893.88;;;-141.29;87.15
22025;BME280;11176;51.448;6.650;2022-12-18T07:44:38;45905.88;;;-141.29;86.81
22025;BME280;11176;51.448;6.650;2022-12-18T07:47:05;45903.88;;;-141.29;86.83
22025;BME280;11176;51.448;6.650;2022-12-18T07:49:37;45903.88;;;-141.29;86.57
22025;BME280;11176;51.448;6.650;2022-12-18T07:52:04;45909.88;;;-141.29;86.35
22025;BME280;11176;51.448;6.650;2022-12-18T07:54:30;45873.88;;;-141.29;86.03
22025;BME280;11176;51.448;6.650;2022-12-18T07:56:56;45877.88;;;-141.29;85.57
22025;BME280;11176;51.448;6.650;2022-12-18T07:59:23;45899.88;;;-141.29;85.47
22025;BME280;11176;51.448;6.650;2022-12-18T08:01:49;45905.88;;;-141.29;85.56
22025;BME280;11176;51.448;6.650;2022-12-18T08:04:16;45899.88;;;-141.29;85.53
22025;BME280;11176;51.448;6.650;2022-12-18T08:06:43;45905.88;;;-141.29;85.48
22025;BME280;11176;51.448;6.650;2022-12-18T08:09:13;45911.84;;;-141.29;85.35
22025;BME280;11176;51.448;6.650;2022-12-18T08:11:40;45903.88;;;-141.29;84.96
22025;BME280;11176;51.448;6.650;2022-12-18T08:14:06;45889.88;;;-141.29;85.12
22025;BME280;11176;51.448;6.650;2022-12-18T08:16:33;45897.88;;;-141.29;84.86
22025;BME280;11176;51.448;6.650;2022-12-18T08:19:00;45891.88;;;-141.29;84.44
22025;BME280;11176;51.448;6.650;2022-12-18T08:21:28;45897.88;;;-141.29;83.97
22025;BME280;11176;51.448;6.650;2022-12-18T08:23:57;45883.88;;;-141.29;83.89
22025;BME280;11176;51.448;6.650;2022-12-18T08:26:26;45873.88;;;-141.29;83.29
22025;BME280;11176;51.448;6.650;2022-12-18T08:28:54;45895.88;;;-141.29;83.03
22025;BME280;11176;51.448;6.650;2022-12-18T08:31:21;45903.88;;;-141.29;83.34
22025;BME280;11176;51.448;6.650;2022-12-18T08:33:51;45897.88;;;-141.29;82.83
22025;BME280;11176;51.448;6.650;2022-12-18T08:36:19;45877.88;;;-141.29;82.91
22025;BME280;11176;51.448;6.650;2022-12-18T08:38:46;45875.88;;;-141.29;82.39
22025;BME280;11176;51.448;6.650;2022-12-18T08:41:15;45867.88;;;-141.29;82.12
22025;BME280;11176;51.448;6.650;2022-12-18T08:43:41;45885.88;;;-141.29;82.78
22025;BME280;11176;51.448;6.650;2022-12-18T08:46:32;45869.88;;;-141.29;82.16
22025;BME280;11176;51.448;6.650;2022-12-18T08:48:59;45893.88;;;-141.29;82.19
22025;BME280;11176;51.448;6.650;2022-12-18T08:51:26;45881.88;;;-141.29;81.91
22025;BME280;11176;51.448;6.650;2022-12-18T08:53:52;45861.91;;;-141.29;81.75
22025;BME280;11176;51.448;6.650;2022-12-18T08:56:19;45889.88;;;-141.29;81.31
22025;BME280;11176;51.448;6.650;2022-12-18T08:58:45;45857.91;;;-141.29;80.87
22025;BME280;11176;51.448;6.650;2022-12-18T09:01:12;45869.88;;;-141.29;80.85
22025;BME280;11176;51.448;6.650;2022-12-18T09:03:40;45875.88;;;-141.29;80.85
22025;BME280;11176;51.448;6.650;2022-12-18T09:06:07;45889.88;;;-141.29;80.76
22025;BME280;11176;51.448;6.650;2022-12-18T09:08:34;45871.88;;;-141.29;80.45
22025;BME280;11176;51.448;6.650;2022-12-18T09:11:02;45865.88;;;-141.29;79.57
22025;BME280;11176;51.448;6.650;2022-12-18T09:13:29;45867.88;;;-141.29;79.44
22025;BME280;11176;51.448;6.650;2022-12-18T09:15:55;45869.88;;;-141.29;79.20
22025;BME280;11176;51.448;6.650;2022-12-18T09:18:23;45889.88;;;-141.29;78.63
22025;BME280;11176;51.448;6.650;2022-12-18T09:20:50;45839.91;;;-141.29;78.43
22025;BME280;11176;51.448;6.650;2022-12-18T09:23:18;45851.91;;;-141.29;78.46
22025;BME280;11176;51.448;6.650;2022-12-18T09:25:45;45869.88;;;-141.29;78.41
22025;BME280;11176;51.448;6.650;2022-12-18T09:28:13;45867.88;;;-141.29;78.10
22025;BME280;11176;51.448;6.650;2022-12-18T09:30:46;45869.88;;;-141.29;77.83
22025;BME280;11176;51.448;6.650;2022-12-18T09:33:13;45853.91;;;-141.29;77.58
22025;BME280;11176;51.448;6.650;2022-12-18T09:35:41;45849.91;;;-141.29;77.20
22025;BME280;11176;51.448;6.650;2022-12-18T09:38:14;45861.91;;;-141.29;77.32
22025;BME280;11176;51.448;6.650;2022-12-18T09:40:45;45833.91;;;-141.29;76.53
22025;BME280;11176;51.448;6.650;2022-12-18T09:43:18;45837.91;;;-141.29;77.01
22025;BME280;11176;51.448;6.650;2022-12-18T09:45:49;45857.91;;;-141.29;76.96
22025;BME280;11176;51.448;6.650;2022-12-18T09:48:26;45837.91;;;-141.29;76.38
22025;BME280;11176;51.448;6.650;2022-12-18T09:51:02;45821.91;;;-141.29;75.99
22025;BME280;11176;51.448;6.650;2022-12-18T09:53:31;45829.91;;;-141.29;74.34
22025;BME280;11176;51.448;6.650;2022-12-18T09:56:01;45847.91;;;-141.29;74.24
22025;BME280;11176;51.448;6.650;2022-12-18T09:58:39;45849.91;;;-141.29;73.89
22025;BME280;11176;51.448;6.650;2022-12-18T10:01:12;45833.91;;;-141.29;72.81
22025;BME280;11176;51.448;6.650;2022-12-18T10:03:43;45833.91;;;-141.29;72.71
22025;BME280;11176;51.448;6.650;2022-12-18T10:06:18;45821.91;;;-141.29;73.26
22025;BME280;11176;51.448;6.650;2022-12-18T10:09:09;45841.91;;;-141.29;72.23
22025;BME280;11176;51.448;6.650;2022-12-18T10:12:13;45847.91;;;-141.29;72.27
22025;BME280;11176;51.448;6.650;2022-12-18T10:14:51;45837.91;;;-141.29;72.08
22025;BME280;11176;51.448;6.650;2022-12-18T10:23:09;45817.91;;;-141.29;71.21
22025;BME280;11176;51.448;6.650;2022-12-18T10:28:30;45809.94;;;-141.29;69.91
22025;BME280;11176;51.448;6.650;2022-12-18T10:30:58;45811.94;;;-141.29;69.56
22025;BME280;11176;51.448;6.650;2022-12-18T10:33:29;45831.91;;;-141.29;69.68
22025;BME280;11176;51.448;6.650;2022-12-18T10:35:56;45793.94;;;-141.29;69.12
22025;BME280;11176;51.448;6.650;2022-12-18T10:46:07;45825.91;;;-141.29;67.70
22025;BME280;11176;51.448;6.650;2022-12-18T10:51:24;45779.94;;;-141.29;67.50
22025;BME280;11176;51.448;6.650;2022-12-18T10:54:02;45801.94;;;-141.29;67.65
22025;BME280;11176;51.448;6.650;2022-12-18T10:56:33;45805.94;;;-141.29;66.92
22025;BME280;11176;51.448;6.650;2022-12-18T10:59:06;45821.91;;;-141.29;66.71
22025;BME280;11176;51.448;6.650;2022-12-18T11:01:56;45785.94;;;-141.29;66.28
22025;BME280;11176;51.448;6.650;2022-12-18T11:04:29;45781.94;;;-141.29;66.19
22025;BME280;11176;51.448;6.650;2022-12-18T11:06:58;45799.94;;;-141.29;66.63
22025;BME280;11176;51.448;6.650;2022-12-18T11:09:30;45773.94;;;-141.29;65.96
22025;BME280;11176;51.448;6.650;2022-12-18T11:11:59;45793.94;;;-141.29;66.72
22025;BME280;11176;51.448;6.650;2022-12-18T11:14:34;45801.94;;;-141.29;66.45
22025;BME280;11176;51.448;6.650;2022-12-18T11:17:29;45765.97;;;-141.29;65.72
22025;BME280;11176;51.448;6.650;2022-12-18T11:20:02;45789.94;;;-141.29;65.72
22025;BME280;11176;51.448;6.650;2022-12-18T11:22:31;45777.94;;;-141.29;65.25
22025;BME280;11176;51.448;6.650;2022-12-18T11:25:00;45789.94;;;-141.29;65.52
22025;BME280;11176;51.448;6.650;2022-12-18T11:27:49;45785.94;;;-141.29;65.74
22025;BME280;11176;51.448;6.650;2022-12-18T11:30:24;45781.94;;;-141.29;65.62
22025;BME280;11176;51.448;6.650;2022-12-18T11:32:55;45763.97;;;-141.29;65.32
22025;BME280;11176;51.448;6.650;2022-12-18T11:35:34;45775.94;;;-141.29;65.46
22025;BME280;11176;51.448;6.650;2022-12-18T11:38:19;45763.97;;;-141.29;65.20
22025;BME280;11176;51.448;6.650;2022-12-18T11:40:51;45785.94;;;-141.29;64.42
22025;BME280;11176;51.448;6.650;2022-12-18T11:43:45;45765.97;;;-141.29;64.03
22025;BME280;11176;51.448;6.650;2022-12-18T11:46:37;45771.94;;;-141.29;64.12
22025;BME280;11176;51.448;6.650;2022-12-18T11:49:18;45777.94;;;-141.29;64.30
22025;BME280;11176;51.448;6.650;2022-12-18T11:51:56;45777.94;;;-141.29;64.63
22025;BME280;11176;51.448;6.650;2022-12-18T11:54:24;45761.97;;;-141.29;65.03
22025;BME280;11176;51.448;6.650;2022-12-18T11:56:55;45749.97;;;-141.29;64.42
22025;BME280;11176;51.448;6.650;2022-12-18T12:02:15;45765.97;;;-141.29;64.52
22025;BME280;11176;51.448;6.650;2022-12-18T12:04:55;45777.94;;;-141.29;64.50
22025;BME280;11176;51.448;6.650;2022-12-18T12:07:38;45761.97;;;-141.29;64.42
22025;BME280;11176;51.448;6.650;2022-12-18T12:10:34;45751.97;;;-141.29;63.46
22025;BME280;11176;51.448;6.650;2022-12-18T12:13:22;45763.97;;;-141.29;63.59
22025;BME280;11176;51.448;6.650;2022-12-18T12:16:15;45773.94;;;-141.29;63.94
22025;BME280;11176;51.448;6.650;2022-12-18T12:22:00;45749.97;;;-141.29;64.95
22025;BME280;11176;51.448;6.650;2022-12-18T12:30:00;45769.97;;;-141.29;62.77
22025;BME280;11176;51.448;6.650;2022-12-18T12:33:04;45757.97;;;-141.29;62.74
22025;BME280;11176;51.448;6.650;2022-12-18T12:38:16;45757.97;;;-141.29;62.81
22025;BME280;11176;51.448;6.650;2022-12-18T12:41:05;45773.94;;;-141.29;63.48
22025;BME280;11176;51.448;6.650;2022-12-18T12:43:56;45763.97;;;-141.29;63.63
22025;BME280;11176;51.448;6.650;2022-12-18T12:46:24;45751.97;;;-141.29;63.62
22025;BME280;11176;51.448;6.650;2022-12-18T12:48:57;45735.97;;;-141.29;62.71
22025;BME280;11176;51.448;6.650;2022-12-18T12:51:35;45769.97;;;-141.29;62.37
22025;BME280;11176;51.448;6.650;2022-12-18T12:54:05;45749.97;;;-141.29;62.47
22025;BME280;11176;51.448;6.650;2022-12-18T12:56:56;45773.94;;;-141.29;62.83
22025;BME280;11176;51.448;6.650;2022-12-18T12:59:39;45763.97;;;-141.29;62.92
22025;BME280;11176;51.448;6.650;2022-12-18T13:02:18;45733.97;;;-141.29;62.99
22025;BME280;11176;51.448;6.650;2022-12-18T13:04:57;45777.94;;;-141.29;62.79
22025;BME280;11176;51.448;6.650;2022-12-18T13:07:40;45749.97;;;-141.29;62.73
22025;BME280;11176;51.448;6.650;2022-12-18T13:15:42;45767.97;;;-141.29;62.73
22025;BME280;11176;51.448;6.650;2022-12-18T13:18:21;45757.97;;;-141.29;63.09
22025;BME280;11176;51.448;6.650;2022-12-18T13:23:35;45753.97;;;-141.29;62.45
22025;BME280;11176;51.448;6.650;2022-12-18T13:31:00;45781.94;;;-141.29;62.10
22025;BME280;11176;51.448;6.650;2022-12-18T13:33:37;45767.97;;;-141.29;61.65
22025;BME280;11176;51.448;6.650;2022-12-18T13:41:36;45777.94;;;-141.29;61.29
22025;BME280;11176;51.448;6.650;2022-12-18T13:46:50;45765.97;;;-141.29;61.09
22025;BME280;11176;51.448;6.650;2022-12-18T13:49:23;45765.97;;;-141.29;61.17
22025;BME280;11176;51.448;6.650;2022-12-18T13:51:54;45773.94;;;-141.29;61.35
22025;BME280;11176;51.448;6.650;2022-12-18T13:54:27;45761.97;;;-141.29;61.68
22025;BME280;11176;51.448;6.650;2022-12-18T13:56:55;45763.97;;;-141.29;62.38
22025;BME280;11176;51.448;6.650;2022-12-18T14:02:01;45769.97;;;-141.29;61.70
22025;BME280;11176;51.448;6.650;2022-12-18T14:04:33;45773.94;;;-141.29;63.04
22025;BME280;11176;51.448;6.650;2022-12-18T14:07:21;45767.97;;;-141.29;62.32
22025;BME280;11176;51.448;6.650;2022-12-18T14:09:55;45769.97;;;-141.29;62.04
22025;BME280;11176;51.448;6.650;2022-12-18T14:12:50;45751.97;;;-141.29;61.21
22025;BME280;11176;51.448;6.650;2022-12-18T14:17:57;45777.94;;;-141.29;61.75
22025;BME280;11176;51.448;6.650;2022-12-18T14:20:26;45757.97;;;-141.29;61.39